createdAt,value
2022-07-25T00:00:48.442Z,76.25
2022-07-25T00:01:48.501Z,76.15
2022-07-25T00:02:48.397Z,75.64
2022-07-25T00:03:48.619Z,75.54
2022-07-25T00:04:48.517Z,76.04
2022-07-25T00:05:48.348Z,76.45
2022-07-25T00:06:48.361Z,76.45
2022-07-25T00:07:48.343Z,76.34
2022-07-25T00:08:48.315Z,76.65
2022-07-25T00:09:48.337Z,76.65
2022-07-25T00:10:48.314Z,76.65
2022-07-25T00:11:48.294Z,76.78
2022-07-25T00:12:48.327Z,76.78
2022-07-25T00:13:48.250Z,76.89
2022-07-25T00:14:48.258Z,77.19
2022-07-25T00:15:48.267Z,77.48
2022-07-25T00:16:48.246Z,77.59
2022-07-25T00:17:48.218Z,77.59
2022-07-25T00:18:48.195Z,77.69
2022-07-25T00:19:48.183Z,77.89
2022-07-25T00:20:48.204Z,78.19
2022-07-25T00:21:48.133Z,78.09
2022-07-25T00:22:48.183Z,77.99
2022-07-25T00:23:48.141Z,77.79
2022-07-25T00:24:48.157Z,77.79
2022-07-25T00:25:48.131Z,78.09
2022-07-25T00:26:48.097Z,77.99
2022-07-25T00:27:48.062Z,77.89
2022-07-25T00:28:48.065Z,78.29
2022-07-25T00:29:48.081Z,77.99
2022-07-25T00:30:48.126Z,77.99
2022-07-25T00:31:48.155Z,78.29
2022-07-25T00:32:48.015Z,78.29
2022-07-25T00:33:48.004Z,78.39
2022-07-25T00:34:47.983Z,77.99
2022-07-25T00:35:47.963Z,77.89
2022-07-25T00:36:47.961Z,77.89
2022-07-25T00:37:47.941Z,78.12
2022-07-25T00:38:47.934Z,78.09
2022-07-25T00:39:47.928Z,78.29
2022-07-25T00:40:54.257Z,78.59
2022-07-25T00:41:48.912Z,78.53
2022-07-25T00:42:47.893Z,78.03
2022-07-25T00:43:47.879Z,78.03
2022-07-25T00:44:47.853Z,78.12
2022-07-25T00:45:47.828Z,78.12
2022-07-25T00:46:47.911Z,78.12
2022-07-25T00:47:47.821Z,78.03
2022-07-25T00:48:47.882Z,78.12
2022-07-25T00:49:47.786Z,78.03
2022-07-25T00:50:47.818Z,78.12
2022-07-25T00:51:47.786Z,78.63
2022-07-25T00:52:47.774Z,78.22
2022-07-25T00:53:47.735Z,77.83
2022-07-25T00:54:47.749Z,77.62
2022-07-25T00:55:47.748Z,77.52
2022-07-25T00:56:47.697Z,77.62
2022-07-25T00:57:47.705Z,77.83
2022-07-25T00:58:47.695Z,78.12
2022-07-25T00:59:47.681Z,78.42
2022-07-25T01:00:47.650Z,79.03
2022-07-25T01:01:47.761Z,78.42
2022-07-25T01:02:47.841Z,78.22
2022-07-25T01:03:47.634Z,78.22
2022-07-25T01:04:47.593Z,78.03
2022-07-25T01:05:51.648Z,77.92
2022-07-25T01:06:48.586Z,77.92
2022-07-25T01:07:47.644Z,78.03
2022-07-25T01:08:47.535Z,78.03
2022-07-25T01:09:47.529Z,78.12
2022-07-25T01:10:47.510Z,78.12
2022-07-25T01:11:47.533Z,78.33
2022-07-25T01:12:47.501Z,78.63
2022-07-25T01:13:47.464Z,78.73
2022-07-25T01:14:47.463Z,79.13
2022-07-25T01:15:47.514Z,78.83
2022-07-25T01:16:47.453Z,78.66
2022-07-25T01:17:47.454Z,78.77
2022-07-25T01:18:47.402Z,78.56
2022-07-25T01:19:47.461Z,78.46
2022-07-25T01:20:47.383Z,78.36
2022-07-25T01:21:47.483Z,78.16
2022-07-25T01:22:47.363Z,78.46
2022-07-25T01:23:47.397Z,78.56
2022-07-25T01:24:47.405Z,78.46
2022-07-25T01:25:47.337Z,78.16
2022-07-25T01:26:47.312Z,78.27
2022-07-25T01:27:52.786Z,78.56
2022-07-25T01:28:48.330Z,78.66
2022-07-25T01:29:47.303Z,79.06
2022-07-25T01:30:47.322Z,78.77
2022-07-25T01:31:47.254Z,78.56
2022-07-25T01:32:47.289Z,78.36
2022-07-25T01:33:47.222Z,78.36
2022-07-25T01:34:47.201Z,78.56
2022-07-25T01:35:47.234Z,78.56
2022-07-25T01:36:47.170Z,78.56
2022-07-25T01:37:47.191Z,78.66
2022-07-25T01:38:47.160Z,78.66
2022-07-25T01:39:47.195Z,78.66
2022-07-25T01:40:47.148Z,78.77
2022-07-25T01:41:47.189Z,78.56
2022-07-25T01:42:47.128Z,78.56
2022-07-25T01:43:47.108Z,78.77
2022-07-25T01:44:47.097Z,78.56
2022-07-25T01:45:47.129Z,78.46
2022-07-25T01:46:47.194Z,78.97
2022-07-25T01:47:47.047Z,79.06
2022-07-25T01:48:47.106Z,79.17
2022-07-25T01:49:47.022Z,78.97
2022-07-25T01:50:46.997Z,79.10
2022-07-25T01:51:47.005Z,78.90
2022-07-25T01:52:46.993Z,79.21
2022-07-25T01:53:46.972Z,79.30
2022-07-25T01:54:46.961Z,79.41
2022-07-25T01:55:46.998Z,79.41
2022-07-25T01:56:48.322Z,79.30
2022-07-25T01:57:49.572Z,79.30
2022-07-25T01:58:46.944Z,79.50
2022-07-25T01:59:46.874Z,79.61
2022-07-25T02:00:46.898Z,79.41
2022-07-25T02:01:46.921Z,79.81
2022-07-25T02:02:46.883Z,79.71
2022-07-25T02:03:46.974Z,79.81
2022-07-25T02:04:46.862Z,79.71
2022-07-25T02:05:46.802Z,79.50
2022-07-25T02:06:46.801Z,79.61
2022-07-25T02:07:46.787Z,79.50
2022-07-25T02:08:46.801Z,79.41
2022-07-25T02:09:46.762Z,79.41
2022-07-25T02:10:46.829Z,79.10
2022-07-25T02:11:46.722Z,79.21
2022-07-25T02:12:46.714Z,79.41
2022-07-25T02:13:46.709Z,80.01
2022-07-25T02:14:46.788Z,79.81
2022-07-25T02:15:46.673Z,79.71
2022-07-25T02:16:46.756Z,79.71
2022-07-25T02:17:46.730Z,79.50
2022-07-25T02:18:46.692Z,79.71
2022-07-25T02:19:46.644Z,79.91
2022-07-25T02:20:46.650Z,79.61
2022-07-25T02:21:46.620Z,79.50
2022-07-25T02:22:46.600Z,79.81
2022-07-25T02:23:46.576Z,79.71
2022-07-25T02:24:46.656Z,79.61
2022-07-25T02:25:46.559Z,79.71
2022-07-25T02:26:46.559Z,79.71
2022-07-25T02:27:46.541Z,79.61
2022-07-25T02:28:46.531Z,79.91
2022-07-25T02:29:46.549Z,80.15
2022-07-25T02:30:46.587Z,80.11
2022-07-25T02:31:46.487Z,80.01
2022-07-25T02:32:46.494Z,79.94
2022-07-25T02:33:46.503Z,79.85
2022-07-25T02:34:46.538Z,79.74
2022-07-25T02:35:46.452Z,80.35
2022-07-25T02:36:46.464Z,80.75
2022-07-25T02:37:46.421Z,80.85
2022-07-25T02:38:46.433Z,80.55
2022-07-25T02:39:46.377Z,80.45
2022-07-25T02:40:46.411Z,80.35
2022-07-25T02:41:46.342Z,80.35
2022-07-25T02:42:46.396Z,80.65
2022-07-25T02:43:46.328Z,80.65
2022-07-25T02:44:46.352Z,80.35
2022-07-25T02:45:46.350Z,80.05
2022-07-25T02:46:46.295Z,80.55
2022-07-25T02:47:46.287Z,80.35
2022-07-25T02:48:46.326Z,80.65
2022-07-25T02:49:46.258Z,81.05
2022-07-25T02:50:46.257Z,81.26
2022-07-25T02:51:46.223Z,81.15
2022-07-25T02:52:46.194Z,80.75
2022-07-25T02:53:57.022Z,80.55
2022-07-25T02:54:47.182Z,80.75
2022-07-25T02:55:46.195Z,80.45
2022-07-25T02:56:46.238Z,80.25
2022-07-25T02:57:46.204Z,80.35
2022-07-25T02:58:46.158Z,80.55
2022-07-25T02:59:46.172Z,80.55
2022-07-25T03:00:46.139Z,80.45
2022-07-25T03:01:46.171Z,80.15
2022-07-25T03:02:46.180Z,80.35
2022-07-25T03:03:46.185Z,80.65
2022-07-25T03:04:46.061Z,80.65
2022-07-25T03:05:46.099Z,80.85
2022-07-25T03:06:46.043Z,80.65
2022-07-25T03:07:46.030Z,80.45
2022-07-25T03:08:45.991Z,80.85
2022-07-25T03:09:46.004Z,80.95
2022-07-25T03:10:45.963Z,81.05
2022-07-25T03:11:46.003Z,80.95
2022-07-25T03:12:45.939Z,80.85
2022-07-25T03:13:45.932Z,80.89
2022-07-25T03:14:45.929Z,80.85
2022-07-25T03:15:45.966Z,81.09
2022-07-25T03:16:45.998Z,81.29
2022-07-25T03:17:45.899Z,81.39
2022-07-25T03:18:45.867Z,81.29
2022-07-25T03:19:45.858Z,81.19
2022-07-25T03:20:45.849Z,81.09
2022-07-25T03:21:45.888Z,80.99
2022-07-25T03:22:45.830Z,80.99
2022-07-25T03:23:50.422Z,81.29
2022-07-25T03:24:46.809Z,81.70
2022-07-25T03:25:45.882Z,81.39
2022-07-25T03:26:45.758Z,81.29
2022-07-25T03:27:45.755Z,81.29
2022-07-25T03:28:45.765Z,81.39
2022-07-25T03:29:45.715Z,81.70
2022-07-25T03:30:45.756Z,81.59
2022-07-25T03:31:45.746Z,81.59
2022-07-25T03:32:45.695Z,81.29
2022-07-25T03:33:45.668Z,81.39
2022-07-25T03:34:45.699Z,81.59
2022-07-25T03:35:45.657Z,81.59
2022-07-25T03:36:45.637Z,81.59
2022-07-25T03:37:45.663Z,81.59
2022-07-25T03:38:45.635Z,81.70
2022-07-25T03:39:45.625Z,81.73
2022-07-25T03:40:45.587Z,81.90
2022-07-25T03:41:45.592Z,81.73
2022-07-25T03:42:45.627Z,81.73
2022-07-25T03:43:45.542Z,81.73
2022-07-25T03:44:45.541Z,81.73
2022-07-25T03:45:45.626Z,82.04
2022-07-25T03:46:45.510Z,82.04
2022-07-25T03:47:45.561Z,81.93
2022-07-25T03:48:45.540Z,81.63
2022-07-25T03:49:45.476Z,81.73
2022-07-25T03:50:45.551Z,81.93
2022-07-25T03:51:45.501Z,82.04
2022-07-25T03:52:45.431Z,82.04
2022-07-25T03:53:45.434Z,81.93
2022-07-25T03:54:45.443Z,82.14
2022-07-25T03:55:45.383Z,81.84
2022-07-25T03:56:45.380Z,81.93
2022-07-25T03:57:45.400Z,82.14
2022-07-25T03:58:45.358Z,82.24
2022-07-25T03:59:45.342Z,82.24
2022-07-25T04:00:45.445Z,82.44
2022-07-25T04:01:45.426Z,82.44
2022-07-25T04:02:45.417Z,82.44
2022-07-25T04:03:45.334Z,82.44
2022-07-25T04:04:45.329Z,82.54
2022-07-25T04:05:47.634Z,82.44
2022-07-25T04:06:45.268Z,82.54
2022-07-25T04:07:45.228Z,82.64
2022-07-25T04:08:45.254Z,82.94
2022-07-25T04:09:45.236Z,82.84
2022-07-25T04:10:45.388Z,82.84
2022-07-25T04:11:45.311Z,82.84
2022-07-25T04:12:45.229Z,83.04
2022-07-25T04:13:45.157Z,82.94
2022-07-25T04:14:45.148Z,83.14
2022-07-25T04:15:45.236Z,82.74
2022-07-25T04:16:45.221Z,82.74
2022-07-25T04:17:45.157Z,82.94
2022-07-25T04:18:45.211Z,83.04
2022-07-25T04:19:45.079Z,83.14
2022-07-25T04:20:45.077Z,83.14
2022-07-25T04:21:45.099Z,83.14
2022-07-25T04:22:47.169Z,83.14
2022-07-25T04:23:45.026Z,83.34
2022-07-25T04:24:45.054Z,83.25
2022-07-25T04:25:45.021Z,83.14
2022-07-25T04:26:45.010Z,83.34
2022-07-25T04:27:44.997Z,83.34
2022-07-25T04:28:45.040Z,83.14
2022-07-25T04:29:45.044Z,82.74
2022-07-25T04:30:44.955Z,82.94
2022-07-25T04:31:45.002Z,83.25
2022-07-25T04:32:44.923Z,83.14
2022-07-25T04:33:44.911Z,83.14
2022-07-25T04:34:44.882Z,83.25
2022-07-25T04:35:44.872Z,83.34
2022-07-25T04:36:44.997Z,83.65
2022-07-25T04:37:44.854Z,83.34
2022-07-25T04:38:44.981Z,83.45
2022-07-25T04:39:44.831Z,83.45
2022-07-25T04:40:44.893Z,83.54
2022-07-25T04:41:44.792Z,83.34
2022-07-25T04:42:44.800Z,83.14
2022-07-25T04:43:48.540Z,83.25
2022-07-25T04:44:44.880Z,83.54
2022-07-25T04:45:44.810Z,83.65
2022-07-25T04:46:44.760Z,83.65
2022-07-25T04:47:44.726Z,83.75
2022-07-25T04:48:46.341Z,83.84
2022-07-25T04:49:44.689Z,83.95
2022-07-25T04:50:44.702Z,83.84
2022-07-25T04:51:44.678Z,83.95
2022-07-25T04:52:44.671Z,84.25
2022-07-25T04:53:44.638Z,84.35
2022-07-25T04:54:44.660Z,84.15
2022-07-25T04:55:44.610Z,84.15
2022-07-25T04:56:44.619Z,84.15
2022-07-25T04:57:44.609Z,84.35
2022-07-25T04:58:44.597Z,84.65
2022-07-25T04:59:44.576Z,84.95
2022-07-25T05:00:44.654Z,85.05
2022-07-25T05:01:44.646Z,84.95
2022-07-25T05:02:44.591Z,84.65
2022-07-25T05:03:50.080Z,84.35
2022-07-25T05:04:45.742Z,84.51
2022-07-25T05:05:44.478Z,84.55
2022-07-25T05:06:44.563Z,84.31
2022-07-25T05:07:44.483Z,84.61
2022-07-25T05:08:44.530Z,84.61
2022-07-25T05:09:44.435Z,84.81
2022-07-25T05:10:44.476Z,84.71
2022-07-25T05:11:48.604Z,84.51
2022-07-25T05:12:45.476Z,84.81
2022-07-25T05:13:44.397Z,84.71
2022-07-25T05:14:44.415Z,84.71
2022-07-25T05:15:44.354Z,84.81
2022-07-25T05:16:44.419Z,85.02
2022-07-25T05:17:44.415Z,85.11
2022-07-25T05:18:44.324Z,85.31
2022-07-25T05:19:44.321Z,85.72
2022-07-25T05:20:44.307Z,85.88
2022-07-25T05:21:44.291Z,85.78
2022-07-25T05:22:44.328Z,85.98
2022-07-25T05:23:44.292Z,86.28
2022-07-25T05:24:44.280Z,86.08
2022-07-25T05:25:44.250Z,85.58
2022-07-25T05:26:44.249Z,85.38
2022-07-25T05:27:44.200Z,85.38
2022-07-25T05:28:44.267Z,85.17
2022-07-25T05:29:44.194Z,85.17
2022-07-25T05:30:44.176Z,84.88
2022-07-25T05:31:44.307Z,84.88
2022-07-25T05:32:44.175Z,84.97
2022-07-25T05:33:44.129Z,85.24
2022-07-25T05:34:44.226Z,85.44
2022-07-25T05:35:44.102Z,85.24
2022-07-25T05:36:47.178Z,85.24
2022-07-25T05:37:44.101Z,85.24
2022-07-25T05:38:44.060Z,85.44
2022-07-25T05:39:44.112Z,85.44
2022-07-25T05:40:44.040Z,85.33
2022-07-25T05:41:44.033Z,85.24
2022-07-25T05:42:44.162Z,85.24
2022-07-25T05:43:43.991Z,85.24
2022-07-25T05:44:44.005Z,85.03
2022-07-25T05:45:43.998Z,84.94
2022-07-25T05:46:44.027Z,84.80
2022-07-25T05:47:44.072Z,84.69
2022-07-25T05:48:43.977Z,84.69
2022-07-25T05:49:43.972Z,84.59
2022-07-25T05:50:43.905Z,84.59
2022-07-25T05:51:43.968Z,84.49
2022-07-25T05:52:43.884Z,84.49
2022-07-25T05:53:43.904Z,84.59
2022-07-25T05:54:43.981Z,84.59
2022-07-25T05:55:43.879Z,84.39
2022-07-25T05:56:43.847Z,84.49
2022-07-25T05:57:43.837Z,84.45
2022-07-25T05:58:43.805Z,84.55
2022-07-25T05:59:43.796Z,84.65
2022-07-25T06:00:43.822Z,84.75
2022-07-25T06:01:43.964Z,84.85
2022-07-25T06:02:43.885Z,85.05
2022-07-25T06:03:43.782Z,84.95
2022-07-25T06:04:43.890Z,84.95
2022-07-25T06:05:43.738Z,85.05
2022-07-25T06:06:43.717Z,84.95
2022-07-25T06:07:43.795Z,84.91
2022-07-25T06:08:43.706Z,84.91
2022-07-25T06:09:43.664Z,84.91
2022-07-25T06:10:43.687Z,85.11
2022-07-25T06:11:54.493Z,85.11
2022-07-25T06:12:44.653Z,85.02
2022-07-25T06:13:43.633Z,85.02
2022-07-25T06:14:43.676Z,85.11
2022-07-25T06:15:43.607Z,85.11
2022-07-25T06:16:43.701Z,84.97
2022-07-25T06:17:43.572Z,85.17
2022-07-25T06:18:43.571Z,85.17
2022-07-25T06:19:43.568Z,85.08
2022-07-25T06:20:43.574Z,85.08
2022-07-25T06:21:43.546Z,84.97
2022-07-25T06:22:43.511Z,85.38
2022-07-25T06:23:43.555Z,85.97
2022-07-25T06:24:43.521Z,85.78
2022-07-25T06:25:43.469Z,85.63
2022-07-25T06:26:44.490Z,85.53
2022-07-25T06:27:43.450Z,85.53
2022-07-25T06:28:43.420Z,85.33
2022-07-25T06:29:43.439Z,85.03
2022-07-25T06:30:43.402Z,84.74
2022-07-25T06:31:47.236Z,84.93
2022-07-25T06:32:43.380Z,84.93
2022-07-25T06:33:43.410Z,84.89
2022-07-25T06:34:43.361Z,84.79
2022-07-25T06:35:43.341Z,84.69
2022-07-25T06:36:43.345Z,84.49
2022-07-25T06:37:43.309Z,84.59
2022-07-25T06:38:43.307Z,84.59
2022-07-25T06:39:45.890Z,84.49
2022-07-25T06:40:43.323Z,84.29
2022-07-25T06:41:43.326Z,84.55
2022-07-25T06:42:43.245Z,84.75
2022-07-25T06:43:43.263Z,84.75
2022-07-25T06:44:43.246Z,84.55
2022-07-25T06:45:43.264Z,84.35
2022-07-25T06:46:43.322Z,83.05
2022-07-25T06:47:43.225Z,82.85
2022-07-25T06:48:43.298Z,83.05
2022-07-25T06:49:43.157Z,83.01
2022-07-25T06:50:43.274Z,83.31
2022-07-25T06:51:43.122Z,83.51
2022-07-25T06:52:43.130Z,83.71
2022-07-25T06:53:43.168Z,82.91
2022-07-25T06:54:43.096Z,82.81
2022-07-25T06:55:43.090Z,83.17
2022-07-25T06:56:43.101Z,83.97
2022-07-25T06:57:43.055Z,82.97
2022-07-25T06:58:43.057Z,82.77
2022-07-25T06:59:43.115Z,82.47
2022-07-25T07:00:43.111Z,82.07
2022-07-25T07:01:44.323Z,82.97
2022-07-25T07:02:43.061Z,83.03
2022-07-25T07:03:43.059Z,83.13
2022-07-25T07:04:42.992Z,83.23
2022-07-25T07:05:42.966Z,83.13
2022-07-25T07:06:42.935Z,82.83
2022-07-25T07:07:47.414Z,83.63
2022-07-25T07:08:44.074Z,82.73
2022-07-25T07:09:42.893Z,82.33
2022-07-25T07:10:42.883Z,82.19
2022-07-25T07:11:42.931Z,81.89
2022-07-25T07:12:42.902Z,81.39
2022-07-25T07:13:42.846Z,81.09
2022-07-25T07:14:42.842Z,81.69
2022-07-25T07:15:42.912Z,81.99
2022-07-25T07:16:42.903Z,82.09
2022-07-25T07:17:42.887Z,82.35
2022-07-25T07:18:45.816Z,82.15
2022-07-25T07:19:43.786Z,80.65
2022-07-25T07:20:42.790Z,80.65
2022-07-25T07:21:42.762Z,80.85
2022-07-25T07:22:42.745Z,80.76
2022-07-25T07:23:42.757Z,80.95
2022-07-25T07:24:45.107Z,81.12
2022-07-25T07:25:43.708Z,79.82
2022-07-25T07:26:42.738Z,80.02
2022-07-25T07:27:42.689Z,80.62
2022-07-25T07:28:42.746Z,80.71
2022-07-25T07:29:42.658Z,80.32
2022-07-25T07:31:43.708Z,80.41
2022-07-25T07:32:42.649Z,80.38
2022-07-25T07:33:42.612Z,77.58
2022-07-25T07:34:42.588Z,75.78
2022-07-25T07:35:42.576Z,76.78
2022-07-25T07:36:42.675Z,77.48
2022-07-25T07:37:43.836Z,76.04
2022-07-25T07:38:42.631Z,74.05
2022-07-25T07:39:42.520Z,74.05
2022-07-25T07:40:42.574Z,73.95
2022-07-25T07:41:42.533Z,75.81
2022-07-25T07:42:42.521Z,76.41
2022-07-25T07:43:42.479Z,76.51
2022-07-25T07:44:42.450Z,76.31
2022-07-25T07:45:42.498Z,75.91
2022-07-25T07:46:42.606Z,76.87
2022-07-25T07:47:42.458Z,77.57
2022-07-25T07:48:42.462Z,76.37
2022-07-25T07:49:44.097Z,76.27
2022-07-25T07:50:42.530Z,77.17
2022-07-25T07:51:42.476Z,74.98
2022-07-25T07:52:42.364Z,75.18
2022-07-25T07:53:43.307Z,76.67
2022-07-25T07:54:42.377Z,76.14
2022-07-25T07:55:42.363Z,76.54
2022-07-25T07:56:42.391Z,75.04
2022-07-25T07:57:42.353Z,75.44
2022-07-25T07:58:42.314Z,76.24
2022-07-25T07:59:42.267Z,75.24
2022-07-25T08:00:42.317Z,75.74
2022-07-25T08:01:42.295Z,75.84
2022-07-25T08:02:42.300Z,72.81
2022-07-25T08:03:42.222Z,74.01
2022-07-25T08:04:42.308Z,74.60
2022-07-25T08:05:42.186Z,74.21
2022-07-25T08:06:42.194Z,74.80
2022-07-25T08:07:42.176Z,74.90
2022-07-25T08:08:42.153Z,73.08
2022-07-25T08:09:42.156Z,73.28
2022-07-25T08:10:42.204Z,70.98
2022-07-25T08:11:42.152Z,71.69
2022-07-25T08:12:42.106Z,73.77
2022-07-25T08:13:42.139Z,74.57
2022-07-25T08:14:42.098Z,72.05
2022-07-25T08:15:42.229Z,73.14
2022-07-25T08:16:42.098Z,74.43
2022-07-25T08:17:42.040Z,74.63
2022-07-25T08:18:42.067Z,74.84
2022-07-25T08:19:42.095Z,73.94
2022-07-25T08:20:42.146Z,72.44
2022-07-25T08:21:42.022Z,72.44
2022-07-25T08:22:41.978Z,72.34
2022-07-25T08:23:41.962Z,70.03
2022-07-25T08:24:41.950Z,70.62
2022-07-25T08:25:41.948Z,66.84
2022-07-25T08:26:41.987Z,70.52
2022-07-25T08:27:41.962Z,66.44
2022-07-25T08:28:41.880Z,65.02
2022-07-25T08:29:41.880Z,67.40
2022-07-25T08:30:41.959Z,66.88
2022-07-25T08:31:41.894Z,67.87
2022-07-25T08:32:41.857Z,68.96
2022-07-25T08:33:41.829Z,67.07
2022-07-25T08:34:41.809Z,63.96
2022-07-25T08:35:41.897Z,64.86
2022-07-25T08:36:41.778Z,64.86
2022-07-25T08:37:41.810Z,64.03
2022-07-25T08:38:41.778Z,64.73
2022-07-25T08:39:41.786Z,66.11
2022-07-25T08:40:41.762Z,66.88
2022-07-25T08:41:41.753Z,66.78
2022-07-25T08:42:41.744Z,66.38
2022-07-25T08:43:41.720Z,62.51
2022-07-25T08:44:41.709Z,64.10
2022-07-25T08:45:41.720Z,61.42
2022-07-25T08:46:41.823Z,61.82
2022-07-25T08:47:41.697Z,61.59
2022-07-25T08:48:41.759Z,60.99
2022-07-25T08:49:41.703Z,60.00
2022-07-25T08:50:41.608Z,60.86
2022-07-25T08:51:41.595Z,60.17
2022-07-25T08:52:41.626Z,61.46
2022-07-25T08:53:41.625Z,61.76
2022-07-25T08:54:42.655Z,59.94
2022-07-25T08:55:41.631Z,60.83
2022-07-25T08:56:41.525Z,62.72
2022-07-25T08:57:41.533Z,59.84
2022-07-25T08:58:41.699Z,62.82
2022-07-25T08:59:41.511Z,62.82
2022-07-25T09:00:41.531Z,61.23
2022-07-25T09:01:41.588Z,59.84
2022-07-25T09:02:41.529Z,61.60
2022-07-25T09:03:41.537Z,62.69
2022-07-25T09:04:41.453Z,60.61
2022-07-25T09:05:41.506Z,58.92
2022-07-25T09:06:41.399Z,58.73
2022-07-25T09:07:41.433Z,59.00
2022-07-25T09:08:41.373Z,59.49
2022-07-25T09:09:41.417Z,59.09
2022-07-25T09:10:41.394Z,59.06
2022-07-25T09:11:41.368Z,60.45
2022-07-25T09:12:41.321Z,59.95
2022-07-25T09:13:41.352Z,58.28
2022-07-25T09:14:42.162Z,58.37
2022-07-25T09:15:41.330Z,59.76
2022-07-25T09:16:41.409Z,57.35
2022-07-25T09:17:41.314Z,58.54
2022-07-25T09:18:41.291Z,55.87
2022-07-25T09:19:41.301Z,56.57
2022-07-25T09:20:41.220Z,56.27
2022-07-25T09:21:41.323Z,55.15
2022-07-25T09:22:41.200Z,57.33
2022-07-25T09:23:41.212Z,54.17
2022-07-25T09:24:41.171Z,54.66
2022-07-25T09:25:41.237Z,55.22
2022-07-25T09:26:41.316Z,54.24
2022-07-25T09:27:41.151Z,54.73
2022-07-25T09:28:41.152Z,55.03
2022-07-25T09:29:41.258Z,55.92
2022-07-25T09:30:41.141Z,54.61
2022-07-25T09:31:41.245Z,54.90
2022-07-25T09:32:41.095Z,54.71
2022-07-25T09:33:41.112Z,54.71
2022-07-25T09:34:41.053Z,56.88
2022-07-25T09:35:41.280Z,55.40
2022-07-25T09:36:41.019Z,57.97
2022-07-25T09:37:41.084Z,55.00
2022-07-25T09:38:40.999Z,55.27
2022-07-25T09:39:46.109Z,55.18
2022-07-25T09:40:41.988Z,54.97
2022-07-25T09:41:41.025Z,56.16
2022-07-25T09:42:40.958Z,55.64
2022-07-25T09:43:41.013Z,53.37
2022-07-25T09:44:40.956Z,53.96
2022-07-25T09:45:40.939Z,51.59
2022-07-25T09:46:40.991Z,51.50
2022-07-25T09:47:40.960Z,52.28
2022-07-25T09:48:41.098Z,52.48
2022-07-25T09:49:40.969Z,53.67
2022-07-25T09:50:40.866Z,53.57
2022-07-25T09:51:40.875Z,52.26
2022-07-25T09:52:40.951Z,52.56
2022-07-25T09:53:40.816Z,51.77
2022-07-25T09:54:40.796Z,52.26
2022-07-25T09:55:40.870Z,52.16
2022-07-25T09:56:40.775Z,53.84
2022-07-25T09:57:40.755Z,50.98
2022-07-25T09:58:40.795Z,51.77
2022-07-25T09:59:40.819Z,52.56
2022-07-25T10:00:40.761Z,52.85
2022-07-25T10:01:40.870Z,51.37
2022-07-25T10:02:40.760Z,52.56
2022-07-25T10:03:40.693Z,51.84
2022-07-25T10:04:40.714Z,51.35
2022-07-25T10:05:40.653Z,51.74
2022-07-25T10:06:40.686Z,53.71
2022-07-25T10:07:40.683Z,51.35
2022-07-25T10:08:40.633Z,52.23
2022-07-25T10:09:40.652Z,54.50
2022-07-25T10:10:40.613Z,52.14
2022-07-25T10:11:40.597Z,52.23
2022-07-25T10:12:40.582Z,50.95
2022-07-25T10:13:40.553Z,53.12
2022-07-25T10:14:40.552Z,53.32
2022-07-25T10:15:40.532Z,53.02
2022-07-25T10:16:40.593Z,55.49
2022-07-25T10:17:40.543Z,54.70
2022-07-25T10:18:40.534Z,54.80
2022-07-25T10:19:40.498Z,54.90
2022-07-25T10:20:40.498Z,54.40
2022-07-25T10:21:40.451Z,52.43
2022-07-25T10:22:55.786Z,51.54
2022-07-25T10:23:41.442Z,52.04
2022-07-25T10:24:40.417Z,51.84
2022-07-25T10:25:40.429Z,51.81
2022-07-25T10:26:40.413Z,51.81
2022-07-25T10:27:40.419Z,51.81
2022-07-25T10:28:40.359Z,53.88
2022-07-25T10:29:40.360Z,52.90
2022-07-25T10:30:40.456Z,52.40
2022-07-25T10:31:40.415Z,52.31
2022-07-25T10:32:40.340Z,51.20
2022-07-25T10:33:40.321Z,51.89
2022-07-25T10:34:40.295Z,55.43
2022-07-25T10:35:40.304Z,56.22
2022-07-25T10:36:40.308Z,53.27
2022-07-25T10:37:40.248Z,49.92
2022-07-25T10:38:40.290Z,50.31
2022-07-25T10:39:40.228Z,50.19
2022-07-25T10:40:40.234Z,48.03
2022-07-25T10:41:40.227Z,51.57
2022-07-25T10:42:40.216Z,50.19
2022-07-25T10:43:40.240Z,47.83
2022-07-25T10:44:40.174Z,46.94
2022-07-25T10:45:40.228Z,47.12
2022-07-25T10:46:40.194Z,47.71
2022-07-25T10:47:40.146Z,47.91
2022-07-25T10:48:40.181Z,48.00
2022-07-25T10:49:50.171Z,48.18
2022-07-25T10:50:55.504Z,47.00
2022-07-25T10:51:42.036Z,47.69
2022-07-25T10:52:40.054Z,47.00
2022-07-25T10:53:40.162Z,47.17
2022-07-25T10:54:40.135Z,49.92
2022-07-25T10:55:40.155Z,49.43
2022-07-25T10:56:40.180Z,45.60
2022-07-25T10:57:54.937Z,47.64
2022-07-25T10:58:40.989Z,47.34
2022-07-25T10:59:40.058Z,48.23
2022-07-25T11:00:39.984Z,46.26
2022-07-25T11:01:40.023Z,46.85
2022-07-25T11:02:39.992Z,47.74
2022-07-25T11:03:39.935Z,45.87
2022-07-25T11:04:39.943Z,46.85
2022-07-25T11:05:39.894Z,46.36
2022-07-25T11:06:39.894Z,48.03
2022-07-25T11:07:39.981Z,48.33
2022-07-25T11:08:39.978Z,45.38
2022-07-25T11:09:39.845Z,46.24
2022-07-25T11:10:39.841Z,45.95
2022-07-25T11:11:39.836Z,45.95
2022-07-25T11:12:39.911Z,46.83
2022-07-25T11:13:39.832Z,44.84
2022-07-25T11:14:39.792Z,44.94
2022-07-25T11:15:39.794Z,46.61
2022-07-25T11:16:39.818Z,43.57
2022-07-25T11:17:39.823Z,46.31
2022-07-25T11:18:39.739Z,44.65
2022-07-25T11:19:39.722Z,45.24
2022-07-25T11:20:39.741Z,44.94
2022-07-25T11:21:39.723Z,45.43
2022-07-25T11:22:39.712Z,46.12
2022-07-25T11:23:39.680Z,45.14
2022-07-25T11:24:39.791Z,46.12
2022-07-25T11:25:39.650Z,43.96
2022-07-25T11:26:39.652Z,47.47
2022-07-25T11:27:39.641Z,48.06
2022-07-25T11:28:39.630Z,46.10
2022-07-25T11:29:39.601Z,44.13
2022-07-25T11:30:39.740Z,44.73
2022-07-25T11:31:39.646Z,43.82
2022-07-25T11:32:39.562Z,44.70
2022-07-25T11:33:39.549Z,44.60
2022-07-25T11:34:39.568Z,44.31
2022-07-25T11:35:39.560Z,45.00
2022-07-25T11:36:39.528Z,45.17
2022-07-25T11:37:39.521Z,45.27
2022-07-25T11:38:39.543Z,41.74
2022-07-25T11:39:39.468Z,43.21
2022-07-25T11:40:39.488Z,41.25
2022-07-25T11:41:39.457Z,41.13
2022-07-25T11:42:39.584Z,40.35
2022-07-25T11:43:39.450Z,40.17
2022-07-25T11:44:41.819Z,39.69
2022-07-25T11:45:40.483Z,40.66
2022-07-25T11:46:39.398Z,39.49
2022-07-25T11:47:39.376Z,40.76
2022-07-25T11:48:39.567Z,39.78
2022-07-25T11:49:39.416Z,40.47
2022-07-25T11:50:39.359Z,41.25
2022-07-25T11:51:39.325Z,41.25
2022-07-25T11:52:39.337Z,41.84
2022-07-25T11:53:39.340Z,40.76
2022-07-25T11:54:39.356Z,42.60
2022-07-25T11:55:39.275Z,40.55
2022-07-25T11:56:43.088Z,40.35
2022-07-25T11:57:39.277Z,42.99
2022-07-25T11:58:39.307Z,43.19
2022-07-25T11:59:39.236Z,40.74
2022-07-25T12:00:39.252Z,39.27
2022-07-25T12:01:39.244Z,39.56
2022-07-25T12:02:39.298Z,40.06
2022-07-25T12:03:39.319Z,39.86
2022-07-25T12:04:39.206Z,42.31
2022-07-25T12:05:39.151Z,41.62
2022-07-25T12:06:39.162Z,40.64
2022-07-25T12:07:39.161Z,42.02
2022-07-25T12:08:39.146Z,42.02
2022-07-25T12:09:39.134Z,39.96
2022-07-25T12:10:39.092Z,39.76
2022-07-25T12:11:39.203Z,40.55
2022-07-25T12:12:39.073Z,40.47
2022-07-25T12:13:39.224Z,40.95
2022-07-25T12:14:39.063Z,42.13
2022-07-25T12:15:39.064Z,40.17
2022-07-25T12:16:39.135Z,41.94
2022-07-25T12:17:39.003Z,41.25
2022-07-25T12:18:39.034Z,39.70
2022-07-25T12:19:38.983Z,40.39
2022-07-25T12:20:39.014Z,40.00
2022-07-25T12:21:38.976Z,41.08
2022-07-25T12:22:38.952Z,41.27
2022-07-25T12:23:38.953Z,41.49
2022-07-25T12:24:38.931Z,41.49
2022-07-25T12:25:38.930Z,41.29
2022-07-25T12:26:38.909Z,40.70
2022-07-25T12:27:38.923Z,41.47
2022-07-25T12:28:38.921Z,41.76
2022-07-25T12:29:38.905Z,41.47
2022-07-25T12:30:38.930Z,41.35
2022-07-25T12:31:38.851Z,41.05
2022-07-25T12:32:38.819Z,42.11
2022-07-25T12:33:38.874Z,41.03
2022-07-25T12:34:38.800Z,42.97
2022-07-25T12:35:38.863Z,40.82
2022-07-25T12:36:38.776Z,41.41
2022-07-25T12:37:38.768Z,41.88
2022-07-25T12:38:38.749Z,40.21
2022-07-25T12:39:38.783Z,40.11
2022-07-25T12:40:38.754Z,40.39
2022-07-25T12:41:38.707Z,39.31
2022-07-25T12:42:38.710Z,41.56
2022-07-25T12:43:38.754Z,40.09
2022-07-25T12:44:38.689Z,41.25
2022-07-25T12:45:38.706Z,39.29
2022-07-25T12:46:38.665Z,39.49
2022-07-25T12:47:38.660Z,40.66
2022-07-25T12:48:38.707Z,38.51
2022-07-25T12:49:38.659Z,39.49
2022-07-25T12:50:38.657Z,39.22
2022-07-25T12:51:38.666Z,39.51
2022-07-25T12:52:38.592Z,40.39
2022-07-25T12:53:42.318Z,40.31